Time;durP1;ratioP1;P1;durP2;ratioP2;P2;SDS_P1;SDS_P2;PMS_P1;PMS_P2;Temp;Humidity;BMP_temperature;BMP_pressure;BME280_temperature;BME280_humidity;BME280_pressure;Samples;Min_cycle;Max_cycle;Signal;HPM_P1;HPM_P2
2022/05/04 00:02:19;;;;;;;8.82;5.28;;;20.20;41.40;;;;;;5072549;28;20016;-59
2022/05/04 00:04:45;;;;;;;10.52;5.57;;;20.20;41.40;;;;;;5073575;28;20020;-55
2022/05/04 00:07:11;;;;;;;8.73;4.50;;;20.20;41.40;;;;;;5073524;28;20021;-58
2022/05/04 00:09:37;;;;;;;9.18;5.03;;;20.10;41.40;;;;;;5073427;28;20025;-55
2022/05/04 00:12:05;;;;;;;9.30;5.32;;;20.10;41.40;;;;;;5074669;28;20017;-59
2022/05/04 00:14:32;;;;;;;8.30;5.50;;;20.10;41.40;;;;;;5075928;28;20028;-60
2022/05/04 00:16:57;;;;;;;12.38;5.07;;;20.10;41.40;;;;;;5075839;28;20459;-60
2022/05/04 00:19:24;;;;;;;10.57;5.20;;;20.10;41.40;;;;;;5075759;28;20509;-59
2022/05/04 00:21:51;;;;;;;9.25;5.10;;;20.10;41.40;;;;;;5075952;28;20043;-60
2022/05/04 00:24:19;;;;;;;8.52;5.38;;;20.10;41.30;;;;;;5075956;28;20025;-59
2022/05/04 00:26:46;;;;;;;7.57;4.97;;;20.10;41.30;;;;;;5074628;28;20028;-57
2022/05/04 00:29:11;;;;;;;9.98;5.50;;;20.10;41.30;;;;;;5072879;28;20150;-58
2022/05/04 00:31:38;;;;;;;7.47;4.93;;;20.10;41.30;;;;;;5073207;28;20038;-55
2022/05/04 00:34:05;;;;;;;13.38;5.97;;;20.10;41.80;;;;;;5072940;28;20019;-57
2022/05/04 00:36:34;;;;;;;9.20;5.18;;;20.10;41.30;;;;;;5073367;28;20020;-58
2022/05/04 00:38:59;;;;;;;8.77;4.82;;;20.10;41.30;;;;;;5073219;28;20028;-58
2022/05/04 00:41:25;;;;;;;10.43;5.18;;;20.00;41.20;;;;;;5072963;28;20485;-59
2022/05/04 00:43:55;;;;;;;9.10;4.75;;;20.10;41.30;;;;;;5072816;28;20017;-54
2022/05/04 00:46:21;;;;;;;12.05;5.03;;;20.10;41.30;;;;;;5073528;28;20021;-56
2022/05/04 00:48:47;;;;;;;9.68;5.30;;;20.10;41.30;;;;;;5073019;28;20613;-57
2022/05/04 00:51:13;;;;;;;8.77;5.43;;;20.00;41.20;;;;;;5073597;28;20088;-58
2022/05/04 00:53:42;;;;;;;7.97;5.18;;;20.00;41.20;;;;;;5073312;28;20049;-59
2022/05/04 00:56:09;;;;;;;7.93;5.30;;;20.00;41.20;;;;;;5076653;28;20048;-56
2022/05/04 01:01:20;;;;;;;7.60;5.05;;;20.00;41.20;;;;;;5075794;28;20028;-57
2022/05/04 01:03:47;;;;;;;8.20;5.10;;;20.00;41.20;;;;;;5077437;28;20016;-57
2022/05/04 01:06:14;;;;;;;9.80;5.82;;;20.00;41.10;;;;;;5076255;28;20480;-55
2022/05/04 01:08:40;;;;;;;8.57;4.95;;;20.00;41.20;;;;;;5076607;28;20081;-57
2022/05/04 01:11:06;;;;;;;8.70;5.15;;;20.00;41.20;;;;;;5076528;28;20464;-52
2022/05/04 01:13:32;;;;;;;8.20;5.38;;;20.00;41.20;;;;;;5074896;28;20085;-52
2022/05/04 01:15:58;;;;;;;9.52;5.05;;;20.00;41.10;;;;;;5076573;28;20019;-53
2022/05/04 01:18:25;;;;;;;9.38;5.47;;;20.00;41.20;;;;;;5076603;28;20032;-55
2022/05/04 01:20:52;;;;;;;9.13;5.70;;;20.00;41.20;;;;;;5076728;28;20020;-50
2022/05/04 01:23:18;;;;;;;8.20;5.07;;;20.00;41.20;;;;;;5076102;28;20602;-54
2022/05/04 01:25:45;;;;;;;8.57;5.10;;;19.90;41.00;;;;;;5076060;28;20017;-59
2022/05/04 01:28:10;;;;;;;7.00;5.32;;;20.00;41.10;;;;;;5075263;28;20471;-54
2022/05/04 01:30:38;;;;;;;9.32;5.45;;;20.00;41.10;;;;;;5075422;28;20032;-54
2022/05/04 01:33:05;;;;;;;12.50;5.65;;;19.90;41.00;;;;;;5075044;28;20463;-59
2022/05/04 01:35:32;;;;;;;9.20;5.75;;;19.90;41.10;;;;;;5075091;28;20017;-51
2022/05/04 01:37:58;;;;;;;8.25;5.22;;;19.90;41.00;;;;;;5075330;28;20569;-51
2022/05/04 01:40:24;;;;;;;8.98;5.60;;;19.90;41.10;;;;;;5075090;28;20430;-52
2022/05/04 01:42:50;;;;;;;7.00;5.05;;;19.90;41.10;;;;;;5075338;28;20008;-51
2022/05/04 01:45:17;;;;;;;10.80;5.97;;;19.90;41.10;;;;;;5075230;28;20028;-52
2022/05/04 01:47:49;;;;;;;9.07;5.03;;;19.90;41.10;;;;;;5075187;28;20025;-52
2022/05/04 01:50:16;;;;;;;8.45;5.53;;;19.90;41.00;;;;;;5075150;28;20032;-51
2022/05/04 01:52:43;;;;;;;12.13;5.85;;;19.80;41.00;;;;;;5074854;28;20020;-58
2022/05/04 01:55:09;;;;;;;9.90;5.25;;;19.90;41.10;;;;;;5074683;28;20103;-53
2022/05/04 01:57:35;;;;;;;7.55;5.30;;;19.80;41.10;;;;;;5073886;28;20013;-51
2022/05/04 02:00:01;;;;;;;7.97;5.53;;;19.80;41.00;;;;;;5074754;28;20023;-55
2022/05/04 02:02:27;;;;;;;9.68;5.50;;;19.90;41.10;;;;;;5074629;28;20024;-55
2022/05/04 02:04:53;;;;;;;10.65;5.78;;;19.80;41.10;;;;;;5074152;28;20502;-57
2022/05/04 02:07:19;;;;;;;16.55;6.15;;;19.80;41.00;;;;;;5074143;28;20513;-59
2022/05/04 02:09:46;;;;;;;10.13;5.03;;;19.80;41.00;;;;;;5074431;28;20029;-56
2022/05/04 02:12:11;;;;;;;10.30;5.60;;;19.80;41.10;;;;;;5073277;28;20009;-55
2022/05/04 02:14:38;;;;;;;11.05;5.90;;;19.80;41.10;;;;;;5074209;28;20497;-57
2022/05/04 02:17:04;;;;;;;8.80;5.43;;;19.80;41.10;;;;;;5074234;28;20095;-54
2022/05/04 02:19:30;;;;;;;7.82;5.32;;;19.80;41.10;;;;;;5074977;28;20016;-56
2022/05/04 02:21:56;;;;;;;11.18;5.57;;;19.80;41.10;;;;;;5075020;28;20064;-59
2022/05/04 02:24:22;;;;;;;10.85;5.40;;;19.70;41.10;;;;;;5074557;28;20048;-56
2022/05/04 02:26:48;;;;;;;9.35;5.30;;;19.80;41.20;;;;;;5074147;28;20020;-58
2022/05/04 02:29:15;;;;;;;11.25;5.70;;;19.70;41.10;;;;;;5074215;28;20028;-58
2022/05/04 02:31:41;;;;;;;12.23;6.13;;;19.70;41.10;;;;;;5074181;28;20055;-56
2022/05/04 02:34:07;;;;;;;10.38;6.18;;;19.70;41.10;;;;;;5074368;28;20021;-58
2022/05/04 02:39:37;;;;;;;8.70;5.20;;;19.70;41.10;;;;;;5092502;28;20024;-58
2022/05/04 02:42:06;;;;;;;9.25;5.80;;;19.70;41.20;;;;;;5091817;28;20486;-59
2022/05/04 02:44:32;;;;;;;9.85;5.75;;;19.70;41.20;;;;;;5091943;28;20028;-57
2022/05/04 02:46:58;;;;;;;10.55;5.80;;;19.70;41.30;;;;;;5074983;28;20410;-58
2022/05/04 02:49:24;;;;;;;8.90;5.40;;;19.70;41.20;;;;;;5074997;28;20237;-57
2022/05/04 02:51:51;;;;;;;7.78;5.32;;;19.70;41.30;;;;;;5091873;28;20081;-58
2022/05/04 02:54:17;;;;;;;9.35;5.90;;;19.70;41.30;;;;;;5091825;28;20020;-59
2022/05/04 02:56:43;;;;;;;11.80;5.53;;;19.70;41.30;;;;;;5091719;28;20025;-59
2022/05/04 02:59:09;;;;;;;9.90;5.53;;;19.70;41.30;;;;;;5092052;28;20386;-56
2022/05/04 03:04:20;;;;;;;8.93;5.57;;;19.60;41.30;;;;;;5092682;28;20035;-58
2022/05/04 03:06:47;;;;;;;10.02;6.07;;;19.70;41.40;;;;;;5092580;28;20024;-56
2022/05/04 03:09:15;;;;;;;10.80;5.95;;;19.60;41.40;;;;;;5090943;28;20028;-57
2022/05/04 03:11:56;;;;;;;9.25;5.72;;;19.60;41.90;;;;;;5073640;28;20024;-58
2022/05/04 03:14:27;;;;;;;9.93;5.50;;;19.60;41.40;;;;;;5089624;28;20017;-57
2022/05/04 03:16:52;;;;;;;12.77;5.72;;;19.60;41.40;;;;;;5073632;28;20028;-57
2022/05/04 03:19:19;;;;;;;8.55;5.25;;;19.60;41.50;;;;;;5074243;28;20020;-56
2022/05/04 03:21:46;;;;;;;9.50;5.57;;;19.60;41.40;;;;;;5073580;28;20535;-58
2022/05/04 03:24:12;;;;;;;11.70;5.60;;;19.60;41.50;;;;;;5074152;28;20528;-57
2022/05/04 03:26:38;;;;;;;10.80;5.95;;;19.60;41.50;;;;;;5090459;28;20016;-55
2022/05/04 03:29:04;;;;;;;11.63;5.35;;;19.60;41.50;;;;;;5075032;28;20044;-58
2022/05/04 03:31:31;;;;;;;7.80;5.38;;;19.60;41.50;;;;;;5074056;28;20021;-54
2022/05/04 03:33:56;;;;;;;9.73;5.60;;;19.60;41.50;;;;;;5075330;28;20100;-59
2022/05/04 03:36:22;;;;;;;9.93;5.78;;;19.60;41.60;;;;;;5074836;28;20077;-58
2022/05/04 03:38:48;;;;;;;10.05;5.68;;;19.50;41.50;;;;;;5075790;28;20020;-58
2022/05/04 03:41:14;;;;;;;8.27;5.65;;;19.60;41.60;;;;;;5075815;28;20394;-58
2022/05/04 03:43:40;;;;;;;9.43;5.78;;;19.60;41.60;;;;;;5075033;28;20028;-56
2022/05/04 03:46:15;;;;;;;9.70;5.38;;;19.50;41.60;;;;;;5076382;28;20016;-57
2022/05/04 03:48:42;;;;;;;9.05;5.70;;;19.50;41.60;;;;;;5076057;28;20044;-55
2022/05/04 03:51:09;;;;;;;8.77;5.25;;;19.50;41.60;;;;;;5076552;28;20008;-58
2022/05/04 03:53:35;;;;;;;9.98;5.53;;;19.50;41.60;;;;;;5077458;28;20047;-58
2022/05/04 03:56:01;;;;;;;8.10;5.40;;;19.50;41.60;;;;;;5076236;28;20005;-55
2022/05/04 03:58:27;;;;;;;10.40;5.10;;;19.50;41.70;;;;;;5071697;28;20020;-51
2022/05/04 04:00:53;;;;;;;9.80;5.07;;;19.50;41.70;;;;;;5072571;28;20047;-53
2022/05/04 04:03:19;;;;;;;10.50;6.00;;;19.50;41.70;;;;;;5071886;28;20471;-50
2022/05/04 04:05:45;;;;;;;10.50;6.10;;;19.50;41.70;;;;;;5071535;28;20023;-53
2022/05/04 04:08:11;;;;;;;10.43;5.25;;;19.50;41.70;;;;;;5072599;28;20044;-51
2022/05/04 04:10:37;;;;;;;9.05;5.03;;;19.40;41.70;;;;;;5071464;28;20020;-51
2022/05/04 04:13:06;;;;;;;7.32;5.57;;;19.40;42.20;;;;;;5075228;28;20429;-55
2022/05/04 04:15:32;;;;;;;9.85;5.40;;;19.40;41.70;;;;;;5074761;28;20025;-57
2022/05/04 04:17:58;;;;;;;16.20;5.13;;;19.40;41.70;;;;;;5076808;28;20486;-55
2022/05/04 04:23:08;;;;;;;10.35;5.53;;;19.40;41.70;;;;;;5073925;28;20113;-52
2022/05/04 04:25:34;;;;;;;10.32;5.68;;;19.40;41.70;;;;;;5074253;28;20035;-54
2022/05/04 04:28:01;;;;;;;8.65;5.28;;;19.40;41.70;;;;;;5072566;28;20019;-53
2022/05/04 04:30:27;;;;;;;7.30;5.28;;;19.40;41.70;;;;;;5076402;28;20115;-50
2022/05/04 04:32:53;;;;;;;7.95;5.20;;;19.40;41.80;;;;;;5076174;28;20016;-50
2022/05/04 04:35:20;;;;;;;8.23;5.32;;;19.40;41.70;;;;;;5076475;28;20031;-50
2022/05/04 04:37:46;;;;;;;10.63;5.50;;;19.40;41.70;;;;;;5076018;28;20471;-53
2022/05/04 04:40:12;;;;;;;8.60;5.50;;;19.40;41.70;;;;;;5075900;28;20491;-51
2022/05/04 04:42:39;;;;;;;8.77;5.32;;;19.40;41.70;;;;;;5075922;28;20021;-50
2022/05/04 04:45:10;;;;;;;8.40;5.70;;;19.40;41.70;;;;;;5076331;28;20019;-52
2022/05/04 04:47:36;;;;;;;8.43;5.53;;;19.40;41.60;;;;;;5076121;28;20097;-51
2022/05/04 04:50:03;;;;;;;8.68;5.30;;;19.30;41.60;;;;;;5075997;28;20074;-51
2022/05/04 04:52:29;;;;;;;8.18;5.03;;;19.30;41.70;;;;;;5076250;28;20017;-50
2022/05/04 04:54:55;;;;;;;11.18;5.03;;;19.30;41.60;;;;;;5076012;28;20021;-52
2022/05/04 04:57:21;;;;;;;7.25;4.82;;;19.40;41.60;;;;;;5076109;28;20024;-55
2022/05/04 04:59:49;;;;;;;12.30;5.57;;;19.30;41.60;;;;;;5074634;28;20069;-53
2022/05/04 05:02:15;;;;;;;11.38;4.90;;;19.30;41.60;;;;;;5075115;28;20020;-53
2022/05/04 05:04:42;;;;;;;10.95;5.63;;;19.30;41.60;;;;;;5076483;28;20047;-52
2022/05/04 05:07:07;;;;;;;6.50;4.78;;;19.30;41.60;;;;;;5076127;28;20057;-54
2022/05/04 05:09:33;;;;;;;9.93;5.82;;;19.30;41.50;;;;;;5075857;28;20035;-52
2022/05/04 05:11:59;;;;;;;10.68;5.60;;;19.30;41.60;;;;;;5074995;28;20019;-55
2022/05/04 05:17:09;;;;;;;11.02;4.95;;;19.30;41.50;;;;;;5077075;28;20505;-57
2022/05/04 05:19:35;;;;;;;8.27;5.32;;;19.30;42.10;;;;;;5058683;28;20029;-57
2022/05/04 05:22:01;;;;;;;7.80;4.95;;;19.30;41.50;;;;;;5076788;28;20043;-52
2022/05/04 05:24:27;;;;;;;11.85;5.53;;;19.30;41.50;;;;;;5076451;28;20379;-53
2022/05/04 05:26:52;;;;;;;9.55;5.07;;;19.30;41.50;;;;;;5075455;28;20394;-55
2022/05/04 05:29:18;;;;;;;8.80;4.90;;;19.30;41.50;;;;;;5074139;28;20039;-56
2022/05/04 05:31:45;;;;;;;11.35;4.90;;;19.30;41.50;;;;;;5075435;28;20020;-54
2022/05/04 05:34:11;;;;;;;8.73;5.45;;;19.30;41.50;;;;;;5074236;28;20043;-52
2022/05/04 05:36:36;;;;;;;7.93;5.53;;;19.30;41.50;;;;;;5075361;28;20380;-55
2022/05/04 05:39:03;;;;;;;9.05;5.15;;;19.40;41.40;;;;;;5075312;28;20028;-55
2022/05/04 05:41:29;;;;;;;7.55;5.68;;;19.60;41.20;;;;;;5074540;28;20406;-54
2022/05/04 05:43:55;;;;;;;8.65;5.13;;;19.70;41.00;;;;;;5074287;28;20017;-53
2022/05/04 05:46:21;;;;;;;7.30;5.05;;;19.60;41.00;;;;;;5074737;28;20521;-53
2022/05/04 05:48:47;;;;;;;7.45;5.18;;;19.70;41.40;;;;;;5073837;28;20041;-51
2022/05/04 05:51:13;;;;;;;7.47;5.07;;;19.80;40.70;;;;;;5073391;28;20040;-54
2022/05/04 05:53:39;;;;;;;9.93;5.32;;;19.90;40.70;;;;;;5074266;28;20479;-54
2022/05/04 05:56:06;;;;;;;7.03;5.18;;;20.00;40.50;;;;;;5074221;28;20066;-53
2022/05/04 05:58:32;;;;;;;7.43;4.80;;;20.10;40.30;;;;;;5074216;28;20008;-55
2022/05/04 06:00:58;;;;;;;10.32;4.82;;;20.20;40.20;;;;;;5073975;28;20008;-54
2022/05/04 06:03:24;;;;;;;9.10;5.05;;;20.30;40.00;;;;;;5072690;28;20015;-54
2022/05/04 06:05:50;;;;;;;13.35;5.65;;;20.50;39.70;;;;;;5073446;28;20036;-54
2022/05/04 06:08:16;;;;;;;10.57;4.63;;;20.60;39.60;;;;;;5073574;28;20389;-55
2022/05/04 06:10:42;;;;;;;9.73;5.80;;;20.70;39.40;;;;;;5072191;28;20063;-55
2022/05/04 06:13:07;;;;;;;13.18;6.82;;;20.80;40.00;;;;;;5088696;28;20013;-53
2022/05/04 06:15:33;;;;;;;16.80;6.78;;;20.80;39.40;;;;;;5073655;28;20029;-54
2022/05/04 06:18:01;;;;;;;16.27;8.02;;;20.90;39.50;;;;;;5073335;28;20036;-56
2022/05/04 06:20:27;;;;;;;18.25;8.10;;;20.80;39.60;;;;;;5072100;28;20498;-58
2022/05/04 06:22:53;;;;;;;28.58;7.72;;;20.90;40.00;;;;;;5087243;28;20177;-55
2022/05/04 06:25:22;;;;;;;21.85;9.40;;;21.00;40.70;;;;;;5071902;28;20081;-56
2022/05/04 06:27:48;;;;;;;19.48;8.50;;;20.90;41.10;;;;;;5071660;28;20017;-54
2022/05/04 06:35:45;;;;;;;17.55;7.70;;;21.10;42.00;;;;;;5071766;28;20162;-57
2022/05/04 06:38:11;;;;;;;18.50;8.13;;;21.20;41.50;;;;;;5071389;28;20040;-59
2022/05/04 06:40:40;;;;;;;17.13;7.00;;;21.40;41.80;;;;;;5072210;28;20153;-58
2022/05/04 06:43:06;;;;;;;15.88;6.90;;;21.70;41.70;;;;;;5070051;28;20023;-60
2022/05/04 06:45:31;;;;;;;12.85;6.05;;;21.90;41.60;;;;;;5071304;28;20025;-58
2022/05/04 06:47:58;;;;;;;13.75;6.03;;;22.10;41.50;;;;;;5071586;28;20032;-58
2022/05/04 06:50:23;;;;;;;14.65;6.00;;;22.20;41.50;;;;;;5071414;28;20043;-58
2022/05/04 06:52:49;;;;;;;15.23;5.43;;;22.30;41.60;;;;;;5071439;28;20013;-60
2022/05/04 06:55:16;;;;;;;15.50;5.10;;;22.40;41.50;;;;;;5071863;28;20013;-59
2022/05/04 06:57:42;;;;;;;17.48;4.82;;;22.50;41.60;;;;;;5070790;28;20052;-58
2022/05/04 07:00:09;;;;;;;10.95;5.38;;;22.50;41.70;;;;;;5071939;28;20451;-58
2022/05/04 07:02:35;;;;;;;11.85;4.55;;;22.60;41.90;;;;;;5072350;28;20016;-59
2022/05/04 07:05:02;;;;;;;15.45;5.10;;;22.60;42.10;;;;;;5072516;28;20024;-58
2022/05/04 07:07:27;;;;;;;13.63;4.95;;;22.60;42.10;;;;;;5072548;28;20013;-59
2022/05/04 07:09:53;;;;;;;11.05;4.60;;;22.60;42.00;;;;;;5071922;28;20020;-60
2022/05/04 07:12:20;;;;;;;14.27;4.55;;;22.70;42.10;;;;;;5071520;28;20092;-59
2022/05/04 07:14:46;;;;;;;21.73;5.07;;;22.70;42.10;;;;;;5070192;28;20011;-58
2022/05/04 07:17:12;;;;;;;32.35;5.05;;;22.60;41.70;;;;;;5072093;28;20092;-63
2022/05/04 07:19:38;;;;;;;22.27;6.90;;;22.40;41.90;;;;;;5071010;28;20104;-64
2022/05/04 07:22:04;;;;;;;14.30;5.65;;;21.90;39.90;;;;;;5070538;28;20048;-64
2022/05/04 07:24:29;;;;;;;14.75;5.90;;;21.10;39.30;;;;;;5070858;28;20020;-62
2022/05/04 07:26:55;;;;;;;19.83;6.93;;;20.50;40.10;;;;;;5070762;28;20017;-58
2022/05/04 07:29:21;;;;;;;16.98;6.00;;;20.00;40.50;;;;;;5070955;28;20073;-57
2022/05/04 07:31:47;;;;;;;14.57;6.10;;;19.70;40.90;;;;;;5072129;28;20041;-58
2022/05/04 07:34:17;;;;;;;15.60;5.38;;;19.80;41.30;;;;;;5070723;28;20016;-57
2022/05/04 07:36:44;;;;;;;15.43;5.55;;;20.00;41.30;;;;;;5072221;28;20023;-58
2022/05/04 07:42:21;;;;;;;11.77;5.00;;;20.10;41.20;;;;;;5071569;28;20154;-56
2022/05/04 07:44:40;;;;;;;13.13;4.30;;;20.40;41.20;;;;;;5072345;28;20027;-57
2022/05/04 07:47:09;;;;;;;9.10;4.20;;;20.50;41.10;;;;;;5054697;28;20016;-57
2022/05/04 07:49:35;;;;;;;17.25;4.80;;;20.70;41.10;;;;;;5071866;28;20455;-58
2022/05/04 07:52:01;;;;;;;13.15;4.63;;;20.60;40.50;;;;;;5070731;28;20078;-56
2022/05/04 07:54:28;;;;;;;11.98;4.97;;;20.50;40.90;;;;;;5072070;28;20088;-56
2022/05/04 07:56:54;;;;;;;10.75;5.07;;;20.50;40.70;;;;;;5071761;28;20025;-57
2022/05/04 07:59:20;;;;;;;11.57;4.95;;;20.50;40.70;;;;;;5070593;28;20493;-55
2022/05/04 08:04:31;;;;;;;13.82;5.13;;;20.60;40.90;;;;;;5074963;28;20420;-56
2022/05/04 08:06:56;;;;;;;13.20;5.32;;;20.60;40.50;;;;;;5076465;28;20021;-55
2022/05/04 08:09:25;;;;;;;17.05;5.05;;;20.70;40.20;;;;;;5074533;28;20522;-55
2022/05/04 08:11:50;;;;;;;17.52;5.78;;;20.80;39.80;;;;;;5076054;28;20425;-56
2022/05/04 08:14:16;;;;;;;14.00;5.50;;;20.80;39.50;;;;;;5074394;28;20017;-58
2022/05/04 08:16:43;;;;;;;17.13;5.13;;;20.80;39.40;;;;;;5075095;28;20040;-59
2022/05/04 08:19:08;;;;;;;16.27;5.35;;;20.90;39.30;;;;;;5074518;28;20347;-57
2022/05/04 08:21:40;;;;;;;19.25;6.60;;;20.90;39.20;;;;;;5075048;28;20044;-58
2022/05/04 08:24:06;;;;;;;20.05;8.25;;;20.80;39.70;;;;;;5075061;28;20017;-58
2022/05/04 08:26:32;;;;;;;17.75;7.65;;;20.60;40.00;;;;;;5075165;28;20021;-58
2022/05/04 08:28:58;;;;;;;16.23;7.65;;;20.50;40.50;;;;;;5075471;28;20418;-58
2022/05/04 08:31:25;;;;;;;15.02;7.82;;;20.30;41.20;;;;;;5074913;28;20095;-58
2022/05/04 08:33:51;;;;;;;20.50;7.70;;;20.50;41.60;;;;;;5074626;28;20031;-56
2022/05/04 08:36:17;;;;;;;15.52;7.25;;;20.80;42.00;;;;;;5073296;28;20024;-59
2022/05/04 08:38:43;;;;;;;17.40;7.40;;;21.00;41.80;;;;;;5074882;28;20096;-56
2022/05/04 08:41:09;;;;;;;15.25;7.40;;;21.10;41.70;;;;;;5090162;28;20024;-58
2022/05/04 08:43:35;;;;;;;15.52;8.05;;;21.20;41.50;;;;;;5074771;28;20328;-57
2022/05/04 08:46:02;;;;;;;15.15;7.35;;;21.30;41.70;;;;;;5074445;28;20028;-55
2022/05/04 08:48:29;;;;;;;12.55;7.85;;;21.30;41.10;;;;;;5072704;28;20328;-57
2022/05/04 08:50:54;;;;;;;12.88;7.95;;;21.40;40.90;;;;;;5072766;28;20008;-57
2022/05/04 08:53:20;;;;;;;12.25;8.05;;;21.40;40.20;;;;;;5089827;28;20374;-57
2022/05/04 08:55:46;;;;;;;15.50;7.50;;;21.40;40.60;;;;;;5089622;28;20508;-57
2022/05/04 08:58:12;;;;;;;19.23;8.10;;;21.50;40.60;;;;;;5056090;28;20125;-55
2022/05/04 09:00:38;;;;;;;14.60;7.78;;;21.50;40.30;;;;;;5074091;28;20120;-55
2022/05/04 09:03:06;;;;;;;14.93;7.78;;;21.50;40.50;;;;;;5072476;28;20456;-54
2022/05/04 09:05:33;;;;;;;15.75;7.93;;;21.50;39.80;;;;;;5073823;28;20037;-54
2022/05/04 09:07:59;;;;;;;21.98;7.28;;;21.50;40.00;;;;;;5072487;28;20055;-54
2022/05/04 09:10:27;;;;;;;33.33;9.95;;;21.70;40.00;;;;;;5074202;28;20055;-55
2022/05/04 09:12:54;;;;;;;28.27;8.05;;;21.50;39.30;;;;;;5073809;28;20092;-57
2022/05/04 09:15:23;;;;;;;36.10;9.63;;;21.30;39.50;;;;;;5073053;28;20090;-56
2022/05/04 09:18:00;;;;;;;20.42;8.60;;;21.20;39.60;;;;;;5074236;28;20091;-55
2022/05/04 09:20:45;;;;;;;14.18;7.25;;;21.30;39.80;;;;;;5075187;28;20208;-57
2022/05/04 09:23:22;;;;;;;17.48;7.72;;;21.40;39.70;;;;;;5074089;28;20056;-54
2022/05/04 09:25:57;;;;;;;13.48;7.10;;;21.70;39.70;;;;;;5074105;28;20075;-56
2022/05/04 09:28:26;;;;;;;22.83;7.05;;;21.90;39.60;;;;;;5073750;28;20017;-60
2022/05/04 09:31:05;;;;;;;16.73;7.53;;;21.90;40.00;;;;;;5073963;28;20020;-57
2022/05/04 09:33:32;;;;;;;23.30;7.97;;;22.00;39.10;;;;;;5073698;28;20009;-58
2022/05/04 09:35:59;;;;;;;13.68;7.85;;;22.10;38.70;;;;;;5072487;28;20119;-58
2022/05/04 09:46:52;;;;;;;19.90;7.78;;;22.20;38.80;;;;;;5073217;28;20476;-56
2022/05/04 09:49:19;;;;;;;20.60;7.93;;;22.20;38.50;;;;;;5072941;28;20027;-56
2022/05/04 09:51:51;;;;;;;13.65;6.88;;;22.20;38.70;;;;;;5073923;28;20091;-55
2022/05/04 09:54:26;;;;;;;13.10;7.75;;;22.30;38.20;;;;;;5073079;28;20370;-59
2022/05/04 09:56:59;;;;;;;16.20;7.90;;;22.30;38.10;;;;;;5072587;28;20035;-58
2022/05/04 09:59:27;;;;;;;17.05;6.78;;;22.30;38.10;;;;;;5073459;28;20070;-57
2022/05/04 10:01:53;;;;;;;15.10;6.80;;;22.20;38.40;;;;;;5073551;28;20021;-57
2022/05/04 10:04:20;;;;;;;14.52;6.65;;;22.10;38.40;;;;;;5074257;28;20020;-58
2022/05/04 10:06:53;;;;;;;13.77;5.80;;;22.10;38.50;;;;;;5074773;28;20021;-56
2022/05/04 10:09:19;;;;;;;18.02;5.40;;;22.10;38.50;;;;;;5073838;28;20028;-58
2022/05/04 10:11:59;;;;;;;9.25;4.68;;;22.10;38.60;;;;;;5074600;28;20066;-58
2022/05/04 10:14:26;;;;;;;13.30;4.88;;;22.10;38.50;;;;;;5074544;28;20072;-58
2022/05/04 10:17:11;;;;;;;14.00;4.68;;;22.10;38.40;;;;;;5074066;28;20009;-58
2022/05/04 10:19:50;;;;;;;12.93;4.88;;;22.00;38.60;;;;;;5057057;28;20027;-58
2022/05/04 10:22:21;;;;;;;11.98;3.95;;;22.00;38.50;;;;;;5074013;28;20037;-58
2022/05/04 10:24:47;;;;;;;9.93;4.22;;;22.00;38.50;;;;;;5073940;28;20495;-58
2022/05/04 10:27:17;;;;;;;10.60;3.80;;;22.10;38.50;;;;;;5072664;28;20141;-57
2022/05/04 10:32:36;;;;;;;10.95;3.60;;;22.00;38.60;;;;;;5074285;28;19907;-57
2022/05/04 10:35:09;;;;;;;9.52;4.10;;;22.00;38.70;;;;;;5073686;28;20051;-57
2022/05/04 10:37:41;;;;;;;7.25;4.05;;;22.00;38.70;;;;;;5074067;28;20095;-58
2022/05/04 10:40:07;;;;;;;12.57;3.67;;;22.00;38.70;;;;;;5072652;28;20020;-58
2022/05/04 10:42:56;;;;;;;6.78;3.70;;;22.00;38.80;;;;;;5056038;28;20049;-58
2022/05/04 10:45:37;;;;;;;9.55;4.20;;;22.00;38.90;;;;;;5073997;28;20048;-58
2022/05/04 10:48:18;;;;;;;9.45;3.60;;;22.00;39.00;;;;;;5073143;28;20090;-58
2022/05/04 10:50:57;;;;;;;7.00;3.25;;;22.00;38.90;;;;;;5073029;28;20115;-58
2022/05/04 10:53:27;;;;;;;9.82;3.92;;;22.00;38.90;;;;;;5073652;28;20021;-58
2022/05/04 10:56:01;;;;;;;8.05;4.30;;;22.00;38.90;;;;;;5073892;28;20025;-58
2022/05/04 10:58:34;;;;;;;10.00;3.90;;;21.90;38.90;;;;;;5073761;28;20142;-58
2022/05/04 11:01:17;;;;;;;10.35;3.63;;;21.90;39.00;;;;;;5073486;28;20031;-58
2022/05/04 11:04:02;;;;;;;8.70;4.03;;;21.90;39.50;;;;;;5073767;28;20023;-59
2022/05/04 11:06:34;;;;;;;7.78;3.63;;;21.80;39.00;;;;;;5072339;28;20059;-58
2022/05/04 11:09:21;;;;;;;9.38;4.30;;;21.80;39.10;;;;;;5073683;28;20498;-59
2022/05/04 11:11:50;;;;;;;8.10;3.45;;;21.90;38.90;;;;;;5088889;28;20438;-58
2022/05/04 11:14:18;;;;;;;6.95;3.63;;;21.90;39.00;;;;;;5073462;28;20091;-58
2022/05/04 11:16:44;;;;;;;8.15;3.75;;;21.80;39.20;;;;;;5089302;28;20016;-58
2022/05/04 11:19:12;;;;;;;6.60;3.90;;;21.80;39.20;;;;;;5073848;28;20016;-58
2022/05/04 11:21:39;;;;;;;5.97;3.55;;;21.70;39.30;;;;;;5073649;28;20052;-59
2022/05/04 11:24:09;;;;;;;6.65;4.47;;;21.70;39.30;;;;;;5072555;28;20028;-58
2022/05/04 11:26:39;;;;;;;7.13;4.28;;;21.80;39.20;;;;;;5073702;28;20021;-58
2022/05/04 11:29:10;;;;;;;7.80;3.40;;;21.80;39.20;;;;;;5073371;28;20023;-58
2022/05/04 11:31:36;;;;;;;7.18;3.72;;;21.70;39.30;;;;;;5073548;28;20099;-58
2022/05/04 11:34:02;;;;;;;9.18;3.80;;;21.70;39.30;;;;;;5073675;28;20049;-58
2022/05/04 11:36:28;;;;;;;6.45;4.30;;;21.70;39.30;;;;;;5073581;28;20028;-58
2022/05/04 11:38:55;;;;;;;6.93;3.90;;;21.80;39.30;;;;;;5072866;28;20433;-58
2022/05/04 11:41:21;;;;;;;6.82;4.20;;;21.80;39.20;;;;;;5073492;28;20025;-59
2022/05/04 11:43:50;;;;;;;7.32;4.25;;;21.70;39.10;;;;;;5073937;28;20074;-58
2022/05/04 11:46:16;;;;;;;7.07;4.13;;;21.80;39.20;;;;;;5073914;28;20017;-58
2022/05/04 11:48:43;;;;;;;10.23;4.07;;;21.70;39.20;;;;;;5073791;28;20043;-57
2022/05/04 11:51:09;;;;;;;6.05;3.70;;;21.70;39.40;;;;;;5073752;28;20024;-58
2022/05/04 11:53:35;;;;;;;6.32;4.30;;;21.70;39.50;;;;;;5073926;28;20004;-59
2022/05/04 11:56:03;;;;;;;5.63;4.25;;;21.70;39.50;;;;;;5073163;28;20478;-58
2022/05/04 11:58:29;;;;;;;10.93;4.90;;;21.60;39.50;;;;;;5073181;28;20024;-58
2022/05/04 12:00:55;;;;;;;6.68;4.03;;;21.70;39.50;;;;;;5072233;28;20059;-58
2022/05/04 12:03:25;;;;;;;8.43;4.18;;;21.70;39.50;;;;;;5073055;28;20055;-58
2022/05/04 12:05:51;;;;;;;5.75;3.90;;;21.70;39.50;;;;;;5073182;28;20032;-58
2022/05/04 12:08:19;;;;;;;6.68;3.75;;;21.70;39.50;;;;;;5071959;28;20029;-58
2022/05/04 12:10:45;;;;;;;11.13;4.75;;;21.70;39.60;;;;;;5071757;28;20375;-58
2022/05/04 12:13:13;;;;;;;4.97;3.58;;;21.70;39.40;;;;;;5072310;28;20020;-58
2022/05/04 12:15:39;;;;;;;6.25;4.50;;;21.70;39.50;;;;;;5071924;28;20009;-58
2022/05/04 12:18:07;;;;;;;7.75;4.50;;;21.70;39.40;;;;;;5072133;28;20020;-60
2022/05/04 12:20:34;;;;;;;9.07;4.43;;;21.70;39.30;;;;;;5073191;28;20031;-61
2022/05/04 12:23:01;;;;;;;7.78;4.70;;;21.70;39.40;;;;;;5072701;28;20136;-61
2022/05/04 12:25:26;;;;;;;6.88;4.15;;;21.70;39.40;;;;;;5072883;28;20017;-61
2022/05/04 12:27:54;;;;;;;6.95;4.32;;;21.70;39.50;;;;;;5073364;28;20030;-60
2022/05/04 12:33:12;;;;;;;5.78;4.50;;;21.70;39.50;;;;;;5073730;28;20064;-61
2022/05/04 12:35:42;;;;;;;8.00;4.50;;;21.80;39.30;;;;;;5074948;28;20020;-60
2022/05/04 12:38:08;;;;;;;7.73;4.93;;;21.80;39.40;;;;;;5078288;28;20028;-61
2022/05/04 12:40:34;;;;;;;5.57;4.53;;;21.80;39.20;;;;;;5077844;28;20096;-61
2022/05/04 12:43:01;;;;;;;10.70;4.80;;;21.80;39.30;;;;;;5078617;28;20020;-62
2022/05/04 12:45:27;;;;;;;8.93;4.72;;;21.80;39.40;;;;;;5078008;28;20013;-61
2022/05/04 12:47:54;;;;;;;4.93;4.28;;;21.80;39.50;;;;;;5076787;28;20032;-61
2022/05/04 12:50:24;;;;;;;7.22;5.13;;;21.80;39.40;;;;;;5077282;28;20036;-62
2022/05/04 12:52:49;;;;;;;5.30;4.38;;;21.80;39.40;;;;;;5078632;28;20019;-62
2022/05/04 12:55:16;;;;;;;7.28;4.45;;;21.80;39.40;;;;;;5078927;28;20016;-61
2022/05/04 12:57:42;;;;;;;7.85;4.90;;;21.80;39.50;;;;;;5079325;28;20020;-62
2022/05/04 13:00:12;;;;;;;6.90;4.55;;;21.80;39.40;;;;;;5077673;28;20025;-61
2022/05/04 13:02:42;;;;;;;5.75;4.30;;;21.80;39.40;;;;;;5076103;28;20024;-61
2022/05/04 13:05:08;;;;;;;6.97;4.53;;;21.80;39.40;;;;;;5076368;28;20021;-62
2022/05/04 13:07:35;;;;;;;8.38;4.82;;;21.80;39.30;;;;;;5076423;28;20087;-61
2022/05/04 13:10:01;;;;;;;8.40;4.45;;;21.80;40.00;;;;;;5075814;28;20029;-61
2022/05/04 13:12:27;;;;;;;5.55;4.75;;;21.80;39.40;;;;;;5075912;28;20044;-62
2022/05/04 13:14:52;;;;;;;8.80;4.80;;;21.80;39.50;;;;;;5075905;28;20040;-62
2022/05/04 13:17:18;;;;;;;8.48;4.90;;;21.80;39.40;;;;;;5075984;28;20203;-61
2022/05/04 13:19:44;;;;;;;6.30;4.35;;;21.70;39.60;;;;;;5075838;28;20024;-60
2022/05/04 13:22:10;;;;;;;6.28;4.80;;;21.70;39.60;;;;;;5075958;28;20048;-60
2022/05/04 13:24:36;;;;;;;5.57;5.00;;;21.70;39.60;;;;;;5074379;28;20024;-61